createdAt,value
2018-08-06T00:00:10.137Z,63.10
2018-08-06T00:02:38.475Z,63.10
2018-08-06T00:05:07.032Z,63.40
2018-08-06T00:07:35.356Z,63.30
2018-08-06T00:10:04.606Z,63.40
2018-08-06T00:12:32.948Z,63.60
2018-08-06T00:15:01.305Z,63.80
2018-08-06T00:17:29.635Z,64.00
2018-08-06T00:19:57.981Z,64.30
2018-08-06T00:22:26.309Z,64.10
2018-08-06T00:24:54.665Z,64.10
2018-08-06T00:27:23.005Z,64.60
2018-08-06T00:29:51.338Z,64.80
2018-08-06T00:32:19.657Z,64.80
2018-08-06T00:34:48.028Z,64.60
2018-08-06T00:37:16.352Z,64.40
2018-08-06T00:39:44.669Z,64.30
2018-08-06T00:42:13.035Z,64.10
2018-08-06T00:44:41.385Z,64.00
2018-08-06T00:47:09.861Z,64.00
2018-08-06T00:49:38.207Z,64.50
2018-08-06T00:52:06.636Z,64.50
2018-08-06T00:54:34.993Z,64.20
2018-08-06T00:57:03.332Z,64.10
2018-08-06T00:59:31.664Z,64.60
2018-08-06T01:02:00.009Z,65.10
2018-08-06T01:04:28.365Z,65.10
2018-08-06T01:06:56.717Z,65.00
2018-08-06T01:09:25.041Z,65.10
2018-08-06T01:11:53.388Z,65.40
2018-08-06T01:14:21.817Z,65.90
2018-08-06T01:16:50.156Z,65.90
2018-08-06T01:19:18.554Z,66.20
2018-08-06T01:21:46.920Z,66.40
2018-08-06T01:24:15.257Z,66.50
2018-08-06T01:26:43.608Z,66.50
2018-08-06T01:29:11.918Z,66.50
2018-08-06T01:31:40.327Z,66.70
2018-08-06T01:34:08.648Z,66.70
2018-08-06T01:36:37.005Z,66.60
2018-08-06T01:39:08.469Z,66.50
2018-08-06T01:41:36.941Z,66.50
2018-08-06T01:44:05.341Z,66.50
2018-08-06T01:46:33.690Z,66.90
2018-08-06T01:49:02.021Z,66.60
2018-08-06T01:51:30.393Z,66.70
2018-08-06T01:53:58.785Z,66.90
2018-08-06T01:56:27.135Z,67.00
2018-08-06T01:58:55.477Z,67.10
2018-08-06T02:01:23.797Z,67.30
2018-08-06T02:03:52.170Z,67.70
2018-08-06T02:06:20.585Z,67.60
2018-08-06T02:08:48.946Z,68.00
2018-08-06T02:11:17.294Z,68.60
2018-08-06T02:13:45.685Z,68.90
2018-08-06T02:16:14.014Z,69.00
2018-08-06T02:18:42.378Z,68.70
2018-08-06T02:21:10.746Z,68.60
2018-08-06T02:23:39.105Z,68.80
2018-08-06T02:26:07.510Z,69.30
2018-08-06T02:28:35.849Z,69.20
2018-08-06T02:31:04.194Z,69.30
2018-08-06T02:33:32.539Z,69.10
2018-08-06T02:36:00.893Z,69.00
2018-08-06T02:38:29.254Z,69.10
2018-08-06T02:40:57.586Z,69.30
2018-08-06T02:43:25.969Z,69.40
2018-08-06T02:45:54.328Z,69.50
2018-08-06T02:48:22.681Z,69.60
2018-08-06T02:50:51.038Z,69.50
2018-08-06T02:53:19.419Z,69.70
2018-08-06T02:55:47.773Z,69.90
2018-08-06T02:58:16.181Z,69.70
2018-08-06T03:00:44.525Z,69.50
2018-08-06T03:03:12.901Z,69.50
2018-08-06T03:05:41.234Z,69.70
2018-08-06T03:08:09.598Z,70.00
2018-08-06T03:10:37.929Z,70.00
2018-08-06T03:13:06.274Z,69.90
2018-08-06T03:15:34.612Z,69.80
2018-08-06T03:18:02.945Z,70.20
2018-08-06T03:20:31.295Z,70.10
2018-08-06T03:22:59.674Z,69.90
2018-08-06T03:25:28.033Z,70.20
2018-08-06T03:27:56.367Z,70.20
2018-08-06T03:30:24.827Z,70.20
2018-08-06T03:32:53.150Z,70.20
2018-08-06T03:35:21.510Z,70.00
2018-08-06T03:37:49.827Z,69.90
2018-08-06T03:40:18.228Z,70.10
2018-08-06T03:42:46.553Z,70.40
2018-08-06T03:45:14.906Z,70.60
2018-08-06T03:47:43.581Z,70.70
2018-08-06T03:50:13.211Z,70.70
2018-08-06T03:52:41.655Z,71.10
2018-08-06T03:55:11.014Z,71.10
2018-08-06T03:57:39.897Z,71.40
2018-08-06T04:00:11.373Z,71.50
2018-08-06T04:02:40.060Z,71.40
2018-08-06T04:05:10.022Z,71.50
2018-08-06T04:07:38.687Z,71.90
2018-08-06T04:10:08.406Z,71.80
2018-08-06T04:12:36.729Z,71.80
2018-08-06T04:15:06.255Z,72.10
2018-08-06T04:17:34.589Z,72.60
2018-08-06T04:20:02.957Z,73.50
2018-08-06T04:22:31.288Z,72.50
2018-08-06T04:24:59.643Z,72.30
2018-08-06T04:27:27.984Z,72.70
2018-08-06T04:29:56.357Z,73.10
2018-08-06T04:32:24.741Z,73.20
2018-08-06T04:34:53.277Z,73.00
2018-08-06T04:37:21.679Z,73.80
2018-08-06T04:39:50.137Z,73.60
2018-08-06T04:42:18.557Z,73.60
2018-08-06T04:44:46.885Z,73.60
2018-08-06T04:47:15.398Z,73.50
2018-08-06T04:49:43.742Z,73.90
2018-08-06T04:52:12.125Z,73.80
2018-08-06T04:54:40.474Z,73.90
2018-08-06T04:59:36.978Z,74.40
2018-08-06T05:02:05.474Z,74.50
2018-08-06T05:04:33.835Z,74.60
2018-08-06T05:07:02.255Z,74.70
2018-08-06T05:09:40.150Z,75.00
2018-08-06T05:12:08.582Z,75.40
2018-08-06T05:14:37.762Z,75.90
2018-08-06T05:17:06.597Z,75.70
2018-08-06T05:19:35.248Z,75.80
2018-08-06T05:22:03.666Z,75.90
2018-08-06T05:24:32.031Z,76.10
2018-08-06T05:27:00.406Z,76.10
2018-08-06T05:29:28.726Z,76.10
2018-08-06T05:31:57.094Z,76.40
2018-08-06T05:34:25.428Z,76.70
2018-08-06T05:36:53.791Z,76.70
2018-08-06T05:39:22.138Z,77.60
2018-08-06T05:41:50.497Z,76.70
2018-08-06T05:44:18.854Z,76.40
2018-08-06T05:46:47.189Z,75.90
2018-08-06T05:49:15.541Z,75.70
2018-08-06T05:51:44.114Z,75.40
2018-08-06T05:54:12.450Z,75.50
2018-08-06T05:56:40.809Z,75.50
2018-08-06T05:59:09.136Z,75.30
2018-08-06T06:01:37.530Z,75.10
2018-08-06T06:04:05.976Z,75.30
2018-08-06T06:06:34.383Z,74.90
2018-08-06T06:09:02.830Z,74.80
2018-08-06T06:11:31.163Z,74.10
2018-08-06T06:16:27.610Z,73.80
2018-08-06T06:18:55.978Z,73.70
2018-08-06T06:21:24.310Z,73.80
2018-08-06T06:23:52.706Z,73.50
2018-08-06T06:26:21.081Z,73.50
2018-08-06T06:28:50.027Z,73.50
2018-08-06T06:31:19.324Z,73.00
2018-08-06T06:33:47.698Z,73.00
2018-08-06T06:36:16.059Z,73.10
2018-08-06T06:38:44.416Z,73.00
2018-08-06T06:41:12.761Z,72.80
2018-08-06T06:43:41.117Z,72.70
2018-08-06T06:46:09.487Z,72.60
2018-08-06T06:48:38.695Z,72.60
2018-08-06T06:51:07.278Z,72.40
2018-08-06T06:53:35.638Z,72.40
2018-08-06T06:56:04.013Z,72.20
2018-08-06T06:58:32.376Z,72.20
2018-08-06T07:01:00.772Z,72.20
2018-08-06T07:03:29.113Z,72.00
2018-08-06T07:05:58.390Z,72.10
2018-08-06T07:08:26.737Z,72.20
2018-08-06T07:10:55.062Z,72.20
2018-08-06T07:13:23.418Z,72.00
2018-08-06T07:18:19.898Z,71.40
2018-08-06T07:20:48.233Z,70.50
2018-08-06T07:23:16.609Z,70.30
2018-08-06T07:25:44.933Z,70.20
2018-08-06T07:28:13.321Z,70.20
2018-08-06T07:30:41.666Z,69.50
2018-08-06T07:33:10.035Z,69.30
2018-08-06T07:35:38.410Z,69.00
2018-08-06T07:38:06.774Z,68.60
2018-08-06T07:40:35.138Z,68.40
2018-08-06T07:43:03.510Z,68.50
2018-08-06T07:45:31.914Z,68.50
2018-08-06T07:48:00.323Z,68.30
2018-08-06T07:50:28.696Z,68.30
2018-08-06T07:52:57.042Z,67.60
2018-08-06T07:55:25.414Z,67.80
2018-08-06T07:57:53.795Z,67.70
2018-08-06T08:00:22.164Z,68.00
2018-08-06T08:02:50.527Z,66.80
2018-08-06T08:05:19.613Z,66.40
2018-08-06T08:07:48.460Z,66.00
2018-08-06T08:10:24.109Z,66.40
2018-08-06T08:12:52.538Z,66.20
2018-08-06T08:15:22.661Z,65.30
2018-08-06T08:17:51.014Z,65.50
2018-08-06T08:20:19.618Z,65.20
2018-08-06T08:22:47.897Z,64.60
2018-08-06T08:25:20.022Z,63.90
2018-08-06T08:27:48.396Z,63.60
2018-08-06T08:30:17.315Z,63.70
2018-08-06T08:32:45.666Z,64.30
2018-08-06T08:35:14.868Z,63.10
2018-08-06T08:37:43.312Z,62.40
2018-08-06T08:40:14.670Z,61.10
2018-08-06T08:42:43.170Z,61.80
2018-08-06T08:45:14.884Z,61.70
2018-08-06T08:47:44.138Z,60.80
2018-08-06T08:50:14.594Z,60.80
2018-08-06T08:52:43.370Z,58.50
2018-08-06T08:55:13.033Z,59.30
2018-08-06T08:57:41.703Z,59.10
2018-08-06T09:00:12.911Z,57.80
2018-08-06T09:02:41.958Z,56.70
2018-08-06T09:05:10.338Z,56.10
2018-08-06T09:07:38.948Z,57.00
2018-08-06T09:10:09.165Z,55.30
2018-08-06T09:12:37.569Z,55.40
2018-08-06T09:17:36.314Z,56.10
2018-08-06T09:20:04.990Z,56.70
2018-08-06T09:22:33.354Z,57.70
2018-08-06T09:25:01.687Z,58.50
2018-08-06T09:27:30.175Z,58.30
2018-08-06T09:32:26.682Z,57.30
2018-08-06T09:34:55.014Z,56.70
2018-08-06T09:37:23.370Z,56.10
2018-08-06T09:39:51.743Z,55.30
2018-08-06T09:42:20.107Z,55.00
2018-08-06T09:44:48.455Z,53.90
2018-08-06T09:47:16.814Z,53.90
2018-08-06T09:49:45.179Z,53.80
2018-08-06T09:52:13.564Z,53.90
2018-08-06T09:54:41.936Z,54.70
2018-08-06T09:57:10.337Z,52.90
2018-08-06T09:59:38.752Z,53.60
2018-08-06T10:02:07.189Z,53.50
2018-08-06T10:04:35.541Z,53.30
2018-08-06T10:07:03.937Z,53.40
2018-08-06T10:09:32.281Z,53.30
2018-08-06T10:12:00.651Z,52.40
2018-08-06T10:14:29.003Z,51.40
2018-08-06T10:16:57.397Z,49.40
2018-08-06T10:19:25.737Z,48.40
2018-08-06T10:21:54.088Z,48.30
2018-08-06T10:24:22.436Z,50.40
2018-08-06T10:26:50.801Z,48.80
2018-08-06T10:29:19.166Z,49.50
2018-08-06T10:31:47.630Z,49.60
2018-08-06T10:34:16.014Z,50.30
2018-08-06T10:36:44.381Z,50.10
2018-08-06T10:39:13.061Z,50.30
2018-08-06T10:41:41.425Z,48.10
2018-08-06T10:44:09.794Z,48.30
2018-08-06T10:46:38.173Z,49.20
2018-08-06T10:49:06.510Z,48.20
2018-08-06T10:51:34.863Z,48.40
2018-08-06T10:54:03.273Z,48.00
2018-08-06T10:56:31.599Z,46.90
2018-08-06T10:58:59.962Z,47.10
2018-08-06T11:01:28.290Z,46.00
2018-08-06T11:03:56.690Z,45.50
2018-08-06T11:06:25.043Z,45.60
2018-08-06T11:08:53.475Z,46.40
2018-08-06T11:11:21.826Z,45.60
2018-08-06T11:13:50.182Z,46.60
2018-08-06T11:16:18.518Z,45.30
2018-08-06T11:18:46.891Z,46.60
2018-08-06T11:21:15.235Z,44.70
2018-08-06T11:23:43.585Z,44.50
2018-08-06T11:26:11.929Z,43.80
2018-08-06T11:28:40.280Z,43.70
2018-08-06T11:31:08.729Z,43.80
2018-08-06T11:33:37.133Z,44.00
2018-08-06T11:36:05.497Z,43.50
2018-08-06T11:38:33.822Z,41.50
2018-08-06T11:41:02.194Z,40.90
2018-08-06T11:43:30.542Z,41.60
2018-08-06T11:45:58.909Z,41.70
2018-08-06T11:48:27.267Z,41.00
2018-08-06T11:50:55.626Z,39.50
2018-08-06T11:53:23.993Z,39.70
2018-08-06T11:55:52.725Z,39.60
2018-08-06T11:58:21.078Z,38.90
2018-08-06T12:00:49.446Z,38.80
2018-08-06T12:03:17.778Z,37.50
2018-08-06T12:05:46.138Z,38.50
2018-08-06T12:08:14.490Z,37.70
2018-08-06T12:10:42.850Z,37.10
2018-08-06T12:13:11.208Z,36.00
2018-08-06T12:15:39.591Z,36.30
2018-08-06T12:18:07.934Z,36.20
2018-08-06T12:20:36.318Z,36.30
2018-08-06T12:23:04.678Z,36.20
2018-08-06T12:25:33.032Z,36.30
2018-08-06T12:28:01.402Z,36.40
2018-08-06T12:30:29.780Z,34.50
2018-08-06T12:32:58.135Z,33.90
2018-08-06T12:35:26.519Z,34.20
2018-08-06T12:37:54.850Z,34.00
2018-08-06T12:40:23.726Z,32.10
2018-08-06T12:42:52.078Z,31.30
2018-08-06T12:45:20.478Z,30.90
2018-08-06T12:47:48.835Z,30.80
2018-08-06T12:50:17.727Z,30.90
2018-08-06T12:52:46.248Z,31.60
2018-08-06T12:55:16.829Z,31.10
2018-08-06T12:57:45.553Z,31.60
2018-08-06T13:00:17.296Z,29.90
2018-08-06T13:02:46.320Z,30.70
2018-08-06T13:05:14.674Z,30.40
2018-08-06T13:07:43.610Z,29.80
2018-08-06T13:10:12.033Z,29.00
2018-08-06T13:12:40.491Z,29.80
2018-08-06T13:15:10.606Z,30.00
2018-08-06T13:20:07.596Z,30.80
2018-08-06T13:22:35.916Z,30.10
2018-08-06T13:25:05.738Z,29.90
2018-08-06T13:27:34.089Z,29.80
2018-08-06T13:30:02.429Z,29.70
2018-08-06T13:32:30.868Z,30.00
2018-08-06T13:34:59.242Z,28.80
2018-08-06T13:37:27.581Z,29.40
2018-08-06T13:39:55.938Z,29.10
2018-08-06T13:42:24.269Z,29.40
2018-08-06T13:44:52.643Z,29.30
2018-08-06T13:47:20.990Z,29.30
2018-08-06T13:49:49.358Z,29.30
2018-08-06T13:52:17.721Z,29.40
2018-08-06T13:54:46.070Z,28.60
2018-08-06T13:57:14.423Z,28.30
2018-08-06T13:59:42.818Z,28.60
2018-08-06T14:02:11.169Z,28.00
2018-08-06T14:04:39.524Z,27.40
2018-08-06T14:07:07.904Z,27.40
2018-08-06T14:09:36.282Z,28.70
2018-08-06T14:12:04.699Z,28.40
2018-08-06T14:14:33.054Z,28.30
2018-08-06T14:17:01.400Z,27.30
2018-08-06T14:19:29.785Z,26.70
2018-08-06T14:21:58.161Z,26.00
2018-08-06T14:24:27.120Z,26.50
2018-08-06T14:26:59.955Z,27.00
2018-08-06T14:29:34.178Z,26.90
2018-08-06T14:32:02.583Z,27.30
2018-08-06T14:34:30.904Z,27.10
2018-08-06T14:36:59.254Z,26.70
2018-08-06T14:39:27.593Z,26.90
2018-08-06T14:41:55.953Z,27.60
2018-08-06T14:44:24.522Z,26.60
2018-08-06T14:46:52.891Z,26.50
2018-08-06T14:49:21.220Z,26.60
2018-08-06T14:51:49.670Z,26.40
2018-08-06T14:54:18.046Z,26.00
2018-08-06T14:56:46.413Z,26.20
2018-08-06T14:59:14.782Z,26.40
2018-08-06T15:01:43.414Z,26.90
2018-08-06T15:04:11.734Z,27.10
2018-08-06T15:06:40.301Z,27.30
2018-08-06T15:09:10.914Z,26.80
2018-08-06T15:11:39.259Z,26.90
2018-08-06T15:14:07.646Z,26.70
2018-08-06T15:16:36.269Z,26.70
2018-08-06T15:19:04.853Z,26.40
2018-08-06T15:21:33.193Z,26.30
2018-08-06T15:24:01.556Z,26.40
2018-08-06T15:26:29.930Z,26.30
2018-08-06T15:29:01.231Z,26.50
2018-08-06T15:31:29.623Z,26.70
2018-08-06T15:33:57.977Z,26.70
2018-08-06T15:36:26.318Z,26.50
2018-08-06T15:38:54.710Z,26.80
2018-08-06T15:41:23.100Z,26.50
2018-08-06T15:43:51.447Z,26.60
2018-08-06T15:46:19.784Z,27.00
2018-08-06T15:48:48.142Z,27.30
2018-08-06T15:51:16.490Z,27.70
2018-08-06T15:53:44.865Z,27.50
2018-08-06T15:56:13.206Z,28.10
2018-08-06T15:58:41.654Z,27.80
2018-08-06T16:01:09.985Z,28.00
2018-08-06T16:03:38.484Z,27.80
2018-08-06T16:06:06.743Z,28.30
2018-08-06T16:08:35.115Z,28.30
2018-08-06T16:11:03.474Z,28.30
2018-08-06T16:13:31.813Z,28.50
2018-08-06T16:16:00.226Z,28.80
2018-08-06T16:18:28.569Z,28.60
2018-08-06T16:20:56.921Z,28.40
2018-08-06T16:23:25.265Z,28.20
2018-08-06T16:25:53.641Z,27.90
2018-08-06T16:28:21.988Z,28.20
2018-08-06T16:30:50.503Z,28.50
2018-08-06T16:33:18.839Z,28.60
2018-08-06T16:35:47.192Z,28.60
2018-08-06T16:38:15.543Z,28.60
2018-08-06T16:40:43.922Z,28.60
2018-08-06T16:43:12.270Z,29.10
2018-08-06T16:45:40.631Z,28.90
2018-08-06T16:48:08.970Z,28.90
2018-08-06T16:50:37.335Z,29.00
2018-08-06T16:53:05.730Z,29.10
2018-08-06T16:55:34.096Z,29.50
2018-08-06T16:58:02.434Z,29.80
2018-08-06T17:00:30.797Z,30.00
2018-08-06T17:02:59.130Z,30.20
2018-08-06T17:05:27.471Z,30.70
2018-08-06T17:07:55.809Z,30.80
2018-08-06T17:10:24.212Z,31.00
2018-08-06T17:12:53.547Z,30.60
2018-08-06T17:15:22.428Z,31.00
2018-08-06T17:17:52.294Z,30.70
2018-08-06T17:20:21.804Z,30.40
2018-08-06T17:22:51.016Z,30.50
2018-08-06T17:25:19.510Z,30.80
2018-08-06T17:27:47.973Z,31.10
2018-08-06T17:30:17.094Z,31.70
2018-08-06T17:32:45.857Z,31.90
2018-08-06T17:35:14.556Z,32.10
2018-08-06T17:37:43.043Z,32.20
2018-08-06T17:40:14.549Z,31.50
2018-08-06T17:42:43.066Z,31.40
2018-08-06T17:45:16.790Z,31.60
2018-08-06T17:47:45.170Z,31.60
2018-08-06T17:50:16.063Z,31.70
2018-08-06T17:52:45.478Z,30.90
2018-08-06T17:55:14.035Z,30.80
2018-08-06T17:57:42.639Z,31.10
2018-08-06T18:00:12.277Z,30.90
2018-08-06T18:02:40.659Z,31.20
2018-08-06T18:05:10.754Z,32.10
2018-08-06T18:07:40.507Z,33.30
2018-08-06T18:10:10.509Z,34.00
2018-08-06T18:12:39.649Z,35.20
2018-08-06T18:15:08.057Z,35.20
2018-08-06T18:17:37.025Z,35.10
2018-08-06T18:20:08.495Z,36.30
2018-08-06T18:22:36.867Z,37.40
2018-08-06T18:25:07.309Z,37.70
2018-08-06T18:27:35.655Z,38.00
2018-08-06T18:30:05.355Z,38.90
2018-08-06T18:32:33.736Z,40.00
2018-08-06T18:35:02.106Z,40.30
2018-08-06T18:37:30.462Z,40.50
2018-08-06T18:39:58.821Z,40.70
2018-08-06T18:42:27.205Z,41.50
2018-08-06T18:44:55.639Z,42.60
2018-08-06T18:47:24.020Z,42.20
2018-08-06T18:49:52.421Z,42.10
2018-08-06T18:52:20.841Z,42.00
2018-08-06T18:54:49.180Z,42.10
2018-08-06T18:57:17.530Z,42.20
2018-08-06T18:59:45.899Z,42.20
2018-08-06T19:02:14.233Z,42.30
2018-08-06T19:04:42.698Z,43.60
2018-08-06T19:07:11.056Z,44.00
2018-08-06T19:09:39.786Z,44.40
2018-08-06T19:12:13.722Z,44.70
2018-08-06T19:17:11.439Z,45.50
2018-08-06T19:19:39.843Z,45.70
2018-08-06T19:22:08.378Z,45.80
2018-08-06T19:25:44.770Z,45.60
2018-08-06T19:28:13.096Z,45.40
2018-08-06T19:30:46.775Z,45.50
2018-08-06T19:33:15.169Z,46.50
2018-08-06T19:35:43.529Z,46.50
2018-08-06T19:38:11.918Z,46.50
2018-08-06T19:40:40.404Z,46.60
2018-08-06T19:43:14.155Z,46.30
2018-08-06T19:45:42.526Z,46.60
2018-08-06T19:48:10.856Z,46.70
2018-08-06T19:50:41.029Z,46.60
2018-08-06T19:53:09.423Z,46.70
2018-08-06T19:55:43.161Z,46.90
2018-08-06T19:58:11.518Z,47.10
2018-08-06T20:00:39.865Z,46.90
2018-08-06T20:03:08.246Z,47.20
2018-08-06T20:05:36.624Z,47.30
2018-08-06T20:08:05.099Z,47.60
2018-08-06T20:10:33.517Z,47.90
2018-08-06T20:13:01.841Z,48.00
2018-08-06T20:15:30.209Z,48.00
2018-08-06T20:17:58.618Z,48.20
2018-08-06T20:20:26.937Z,48.10
2018-08-06T20:22:55.297Z,48.10
2018-08-06T20:25:23.659Z,48.80
2018-08-06T20:27:52.014Z,49.40
2018-08-06T20:30:21.531Z,50.40
2018-08-06T20:32:49.947Z,50.00
2018-08-06T20:35:18.930Z,50.10
2018-08-06T20:37:47.313Z,50.40
2018-08-06T20:40:15.678Z,50.60
2018-08-06T20:42:45.030Z,50.80
2018-08-06T20:45:14.715Z,51.00
2018-08-06T20:47:43.506Z,51.30
2018-08-06T20:50:17.315Z,51.80
2018-08-06T20:52:46.483Z,52.10
2018-08-06T20:55:14.848Z,52.20
2018-08-06T20:57:43.474Z,52.30
2018-08-06T21:00:15.918Z,52.50
2018-08-06T21:02:44.657Z,52.50
2018-08-06T21:05:12.951Z,52.70
2018-08-06T21:07:41.487Z,52.70
2018-08-06T21:10:11.622Z,52.40
2018-08-06T21:12:39.937Z,52.80
2018-08-06T21:15:09.173Z,52.30
2018-08-06T21:17:37.969Z,52.60
2018-08-06T21:20:08.405Z,53.10
2018-08-06T21:22:36.782Z,53.60
2018-08-06T21:25:06.338Z,53.40
2018-08-06T21:27:34.745Z,53.30
2018-08-06T21:30:03.146Z,53.20
2018-08-06T21:32:31.461Z,53.40
2018-08-06T21:34:59.789Z,53.60
2018-08-06T21:37:28.114Z,54.20
2018-08-06T21:39:56.493Z,53.90
2018-08-06T21:42:24.829Z,53.50
2018-08-06T21:44:53.205Z,52.60
2018-08-06T21:47:21.561Z,51.60
2018-08-06T21:49:49.917Z,51.00
2018-08-06T21:52:18.309Z,51.30
2018-08-06T21:54:46.669Z,51.40
2018-08-06T21:57:14.989Z,51.60
2018-08-06T21:59:43.352Z,51.60
2018-08-06T22:02:11.707Z,51.80
2018-08-06T22:04:40.049Z,51.90
2018-08-06T22:07:08.380Z,52.30
2018-08-06T22:09:36.743Z,52.90
2018-08-06T22:12:05.093Z,52.50
2018-08-06T22:14:33.635Z,52.80
2018-08-06T22:19:30.086Z,52.50
2018-08-06T22:21:58.425Z,53.20
2018-08-06T22:24:26.777Z,52.50
2018-08-06T22:29:23.198Z,53.10
2018-08-06T22:31:51.558Z,54.20
2018-08-06T22:34:20.030Z,53.80
2018-08-06T22:36:48.388Z,53.60
2018-08-06T22:39:16.730Z,53.40
2018-08-06T22:41:45.103Z,53.90
2018-08-06T22:44:13.448Z,53.70
2018-08-06T22:46:41.807Z,53.80
2018-08-06T22:49:10.146Z,54.10
2018-08-06T22:51:38.505Z,54.30
2018-08-06T22:54:06.881Z,54.30
2018-08-06T22:56:35.255Z,54.20
2018-08-06T22:59:03.605Z,54.10
2018-08-06T23:01:31.966Z,54.10
2018-08-06T23:04:00.329Z,54.40
2018-08-06T23:06:28.706Z,54.30
2018-08-06T23:08:57.172Z,54.60
2018-08-06T23:11:25.484Z,54.80
2018-08-06T23:13:53.843Z,54.60
2018-08-06T23:16:22.193Z,54.80
2018-08-06T23:18:50.529Z,55.30
2018-08-06T23:21:18.915Z,55.50
2018-08-06T23:23:47.278Z,55.40
2018-08-06T23:26:15.630Z,55.30
2018-08-06T23:28:43.998Z,55.40
2018-08-06T23:31:12.358Z,55.70
2018-08-06T23:33:40.695Z,55.80
2018-08-06T23:36:09.084Z,56.00
2018-08-06T23:38:37.440Z,56.40
2018-08-06T23:41:06.139Z,56.60
2018-08-06T23:43:34.467Z,56.90
2018-08-06T23:46:02.840Z,57.10
2018-08-06T23:48:31.177Z,57.20
2018-08-06T23:50:59.529Z,57.40
2018-08-06T23:53:27.911Z,57.60
2018-08-06T23:55:56.278Z,57.80
2018-08-06T23:58:24.725Z,58.00
